This is the latest recevied weather packets stored in our database for station/object KO4MMQ-10. If no packets are shown the sender has not sent any weather packets the latest 10 day(s).
| Time | Temp. | Humidity | Pressure | Rain* | Wind** | Luminosity | Snow |
|---|---|---|---|---|---|---|---|
| 1777493308 | 19.44° C | 78% | 1013.7 hPa | 0 mm | - | - | - |
| 1777489108 | 19.44° C | 81% | 1014.4 hPa | 0 mm | - | - | - |
| 1777484308 | 17.78° C | 87% | 1015.5 hPa | 0 mm | - | - | - |
| 1777482508 | 17.22° C | 88% | 1016 hPa | 0 mm | - | - | - |
| 1777481908 | 17.78° C | 88% | 1015.9 hPa | 0 mm | - | - | - |
| 1777480708 | 18.33° C | 86% | 1015.6 hPa | 0 mm | - | - | - |
| 1777480108 | 18.33° C | 87% | 1015.4 hPa | 0 mm | - | - | - |
| 1777479509 | 18.33° C | 87% | 1015.1 hPa | 0 mm | - | - | - |
| 1777478908 | 18.33° C | 89% | 1015 hPa | 0 mm | - | - | - |
| 1777477108 | 18.89° C | 90% | 1014.8 hPa | 0 mm | - | - | - |
| 1777475908 | 18.89° C | 90% | 1014.7 hPa | 0 mm | - | - | - |
| 1777474708 | 18.89° C | 91% | 1014.8 hPa | 0 mm | - | - | - |
| 1777473508 | 18.33° C | 92% | 1015 hPa | 0 mm | - | - | - |
| 1777472908 | 18.89° C | 92% | 1014.5 hPa | 0 mm | - | - | - |
| 1777471709 | 18.89° C | 92% | 1013.9 hPa | 0 mm | - | - | - |
| 1777471108 | 18.89° C | 93% | 1013.9 hPa | 0 mm | - | - | - |
| 1777470508 | 18.89° C | 93% | 1013.9 hPa | 0 mm | - | - | - |
| 1777469308 | 18.89° C | 94% | 1013.6 hPa | 0 mm | - | - | - |
| 1777468708 | 18.89° C | 94% | 1013.5 hPa | 0 mm | - | - | - |
| 1777468108 | 19.44° C | 95% | 1013.3 hPa | 0 mm | - | - | - |
| 1777467508 | 19.44° C | 95% | 1013 hPa | 0 mm | - | - | - |
| 1777466908 | 19.44° C | 96% | 1013 hPa | 0 mm | - | - | - |
| 1777466308 | 19.44° C | 96% | 1012.7 hPa | 0 mm | - | - | - |
| 1777465709 | 19.44° C | 96% | 1012.2 hPa | 0 mm | - | - | - |
| 1777465108 | 19.44° C | 96% | 1012 hPa | 0 mm | - | - | - |
* Rain latest hour (hover to see other rain measurements)
** Current wind speed in m/s (hover to see current wind gust speed)